»·PEaware :: N210AR KUDD-KVNY

N210AR :: KUDD-KVNY

FLIGHT INFORMATION

Flight Status: Arrived
Operator: Privately registered:
United States
More flights under this callsign
Pilot: Max S. (16657)
Aircraft: CESSNA 172 SKYHAWK
(C172)
More flights by this aircraft type
Origin: KUDD Bermuda Dunes
United States
Destination: KVNY Van Nuys
United States
More flights between these airports :: More routes between these airports
Route:
File this flight plan on PilotEdge
Remarks: ALPHABET CHALLENGE
Altitude:
(Current/Filed)
6,500ft
Speed:
(Current/Filed)
110kts
Departed: 21-Oct-19 07:24 AM
Arrived: 21-Oct-19 08:47 AM
Distance/Time
Traveled:
114nm/1:23
Distance/Time
To Go:
Arrived

Flight Plot

Page will automatically refresh every two minutes.


Map Options




Map Legend


Flown Route
Filed Route
Departure Airport
Arrival Airport
Navaid (VOR, NDB)
Fix

Horizontal Profiles

Position Reports

Time Latitude Longitude Heading Altitude Ground
Speed
21-Oct-19 07:10 33.746009 -116.272738 78 64ft 0kts
21-Oct-19 07:11 33.746009 -116.272738 78 64ft 0kts
21-Oct-19 07:12 33.746009 -116.272738 78 64ft 0kts
21-Oct-19 07:13 33.746009 -116.272738 78 64ft 0kts
21-Oct-19 07:14 33.746009 -116.272738 78 64ft 0kts
21-Oct-19 07:15 33.746009 -116.272738 78 64ft 0kts
21-Oct-19 07:16 33.746009 -116.272738 78 64ft 0kts
21-Oct-19 07:17 33.746009 -116.272738 78 64ft 0kts
21-Oct-19 07:18 33.746009 -116.272738 78 64ft 0kts
21-Oct-19 07:19 33.746009 -116.272738 78 64ft 0kts
21-Oct-19 07:20 33.745968 -116.269896 116 64ft 16kts
21-Oct-19 07:21 33.745165 -116.267935 119 64ft 0kts
21-Oct-19 07:22 33.745217 -116.267646 37 64ft 9kts
21-Oct-19 07:23 33.751310 -116.280349 293 349ft 58kts
21-Oct-19 07:24 33.760556 -116.299798 305 1081ft 74kts
21-Oct-19 07:25 33.772233 -116.319224 291 2088ft 66kts
21-Oct-19 07:26 33.785401 -116.337920 324 2954ft 72kts
21-Oct-19 07:27 33.802310 -116.352053 322 3777ft 77kts
21-Oct-19 07:28 33.819412 -116.368505 327 4565ft 82kts
21-Oct-19 07:29 33.838708 -116.379316 336 5397ft 69kts
21-Oct-19 07:31 33.857139 -116.388894 334 6069ft 74kts
21-Oct-19 07:32 33.877239 -116.401722 320 6615ft 84kts
21-Oct-19 07:33 33.886552 -116.425954 269 7011ft 71kts
21-Oct-19 07:34 33.881423 -116.451788 275 6764ft 103kts
21-Oct-19 07:35 33.889496 -116.489649 280 6512ft 126kts
21-Oct-19 07:36 33.893422 -116.529125 278 6476ft 114kts
21-Oct-19 07:37 33.896814 -116.566964 278 6477ft 113kts
21-Oct-19 07:38 33.900172 -116.604712 278 6477ft 113kts
21-Oct-19 07:39 33.903512 -116.642402 278 6477ft 113kts
21-Oct-19 07:40 33.906826 -116.679768 277 6479ft 114kts
21-Oct-19 07:41 33.910201 -116.718328 277 6480ft 116kts
21-Oct-19 07:42 33.913610 -116.757265 277 6482ft 116kts
21-Oct-19 07:43 33.916975 -116.795819 276 6483ft 115kts
21-Oct-19 07:44 33.920297 -116.834212 275 6485ft 115kts
21-Oct-19 07:45 33.924409 -116.872364 280 6486ft 114kts
21-Oct-19 07:46 33.931083 -116.909681 282 6486ft 114kts
21-Oct-19 07:47 33.938469 -116.946690 287 6485ft 113kts
21-Oct-19 07:47 33.945149 -116.977279 283 6485ft 113kts
21-Oct-19 07:49 33.953237 -117.020617 283 6484ft 113kts
21-Oct-19 07:50 33.960073 -117.057711 283 6484ft 113kts
21-Oct-19 07:51 33.966889 -117.094744 284 6483ft 113kts
21-Oct-19 07:51 33.972539 -117.125658 284 6483ft 113kts
21-Oct-19 07:53 33.977100 -117.150432 284 6481ft 113kts
21-Oct-19 07:54 33.980039 -117.166215 285 6480ft 114kts
21-Oct-19 07:54 33.984317 -117.189775 285 6479ft 114kts
21-Oct-19 07:55 33.987737 -117.208497 285 6478ft 115kts
21-Oct-19 07:57 33.995228 -117.249516 286 6476ft 116kts
21-Oct-19 07:57 34.000448 -117.278138 286 6475ft 117kts
21-Oct-19 07:58 34.006670 -117.312315 286 6474ft 118kts
21-Oct-19 07:59 34.012759 -117.345815 286 6473ft 119kts
21-Oct-19 08:00 34.018763 -117.378906 286 6472ft 119kts
21-Oct-19 08:01 34.025034 -117.413692 285 6471ft 119kts
21-Oct-19 08:02 34.031166 -117.449438 285 6469ft 118kts
21-Oct-19 08:03 34.037284 -117.484503 285 6467ft 118kts
21-Oct-19 08:04 34.043259 -117.517991 286 6465ft 117kts
21-Oct-19 08:05 34.049155 -117.550860 286 6463ft 117kts
21-Oct-19 08:06 34.055144 -117.584121 286 6460ft 117kts
21-Oct-19 08:07 34.060578 -117.614700 286 6459ft 116kts
21-Oct-19 08:08 34.066080 -117.645319 286 6459ft 116kts
21-Oct-19 08:09 34.071658 -117.676453 285 6460ft 117kts
21-Oct-19 08:10 34.077511 -117.709188 285 6461ft 117kts
21-Oct-19 08:11 34.085423 -117.744629 287 6463ft 117kts
21-Oct-19 08:12 34.092874 -117.783213 285 6465ft 117kts
21-Oct-19 08:13 34.099446 -117.820047 284 6466ft 117kts
21-Oct-19 08:14 34.104787 -117.851144 284 6468ft 118kts
21-Oct-19 08:15 34.110182 -117.882872 284 6462ft 118kts
21-Oct-19 08:16 34.115308 -117.914092 283 6456ft 118kts
21-Oct-19 08:17 34.119574 -117.941591 283 6451ft 118kts
21-Oct-19 08:18 34.124281 -117.970383 284 6446ft 118kts
21-Oct-19 08:19 34.128975 -117.998373 284 6441ft 118kts
21-Oct-19 08:20 34.133593 -118.025863 284 6437ft 118kts
21-Oct-19 08:21 34.137873 -118.051217 284 6433ft 118kts
21-Oct-19 08:22 34.142079 -118.076552 284 6430ft 118kts
21-Oct-19 08:23 34.145802 -118.098757 285 6125ft 96kts
21-Oct-19 08:24 34.149159 -118.118386 285 5581ft 101kts
21-Oct-19 08:25 34.160205 -118.136692 331 4874ft 102kts
21-Oct-19 08:26 34.162320 -118.128553 244 4050ft 111kts
21-Oct-19 08:27 34.178464 -118.142679 327 3365ft 99kts
21-Oct-19 08:28 34.186099 -118.162805 288 3075ft 86kts
21-Oct-19 08:29 34.189084 -118.182157 283 3072ft 92kts
21-Oct-19 08:30 34.195016 -118.203685 291 3073ft 94kts
21-Oct-19 08:31 34.204172 -118.225288 305 3075ft 103kts
21-Oct-19 08:32 34.216093 -118.246099 306 3076ft 106kts
21-Oct-19 08:33 34.228456 -118.268082 302 3078ft 106kts
21-Oct-19 08:34 34.234089 -118.293156 278 3078ft 108kts
21-Oct-19 08:35 34.233731 -118.318382 266 3078ft 109kts
21-Oct-19 08:36 34.231358 -118.341716 265 3078ft 110kts
21-Oct-19 08:37 34.228781 -118.364144 264 3079ft 110kts
21-Oct-19 08:38 34.226219 -118.385800 263 3080ft 110kts
21-Oct-19 08:39 34.223638 -118.407611 263 3080ft 110kts
21-Oct-19 08:40 34.221572 -118.429032 280 2960ft 105kts
21-Oct-19 08:41 34.226433 -118.448647 294 2348ft 71kts
21-Oct-19 08:42 34.227814 -118.462160 271 1956ft 74kts
21-Oct-19 08:43 34.227745 -118.477161 271 1378ft 63kts
21-Oct-19 08:44 34.225770 -118.489168 223 1077ft 64kts
21-Oct-19 08:45 34.216867 -118.491099 180 849ft 62kts
21-Oct-19 08:46 34.210330 -118.490690 230 806ft 10kts
21-Oct-19 08:47 34.209692 -118.491614 225 806ft 7kts
21-Oct-19 08:48 34.210466 -118.492059 356 806ft 12kts
21-Oct-19 08:49 34.211212 -118.491953 65 806ft 0kts
21-Oct-19 08:50 34.211212 -118.491953 66 806ft 0kts
21-Oct-19 08:51 34.211212 -118.491953 66 806ft 0kts

Navigation Log

Ident Type
Flight plan parsing failed, navigation log unavailable